createdAt,value
2022-08-17T12:01:55.247Z,31.76
2022-08-17T12:04:31.237Z,31.28
2022-08-17T12:07:07.603Z,31.97
2022-08-17T12:09:43.658Z,31.63
2022-08-17T12:12:16.380Z,31.72
2022-08-17T12:15:09.601Z,31.64
2022-08-17T12:17:42.644Z,29.48
2022-08-17T12:20:19.485Z,29.61
2022-08-17T12:22:58.509Z,29.25
2022-08-17T12:25:36.159Z,29.26
2022-08-17T12:28:19.849Z,30.02
2022-08-17T12:30:50.393Z,31.01
2022-08-17T12:36:25.927Z,29.83
2022-08-17T12:38:57.050Z,29.66
2022-08-17T12:41:33.181Z,30.00
2022-08-17T12:44:03.408Z,31.08
2022-08-17T12:46:34.401Z,29.77
2022-08-17T12:49:15.251Z,31.02
2022-08-17T12:51:46.647Z,29.50
2022-08-17T12:54:29.037Z,31.17
2022-08-17T13:05:01.349Z,31.64
2022-08-17T13:07:33.900Z,32.08
2022-08-17T13:10:01.932Z,31.95
2022-08-17T13:12:33.103Z,30.78
2022-08-17T13:15:01.351Z,31.19
2022-08-17T13:17:36.457Z,30.98
2022-08-17T13:20:15.797Z,30.23
2022-08-17T13:22:51.865Z,30.10
2022-08-17T13:25:23.019Z,30.14
2022-08-17T13:27:55.866Z,29.83
2022-08-17T13:30:29.717Z,29.88
2022-08-17T13:32:58.891Z,29.47
2022-08-17T13:35:44.979Z,29.92
2022-08-17T13:38:39.496Z,30.07
2022-08-17T13:41:07.387Z,29.59
2022-08-17T13:43:44.411Z,29.33
2022-08-17T13:46:18.617Z,29.20
2022-08-17T13:48:56.845Z,29.17
2022-08-17T13:51:33.775Z,29.21
2022-08-17T13:54:06.205Z,29.42
2022-08-17T13:56:55.858Z,29.73
2022-08-17T13:59:54.546Z,29.33
2022-08-17T14:02:27.644Z,29.17
2022-08-17T14:04:57.493Z,29.86
2022-08-17T14:07:33.261Z,29.93
2022-08-17T14:10:06.006Z,29.66
2022-08-17T14:12:35.534Z,30.10
2022-08-17T14:15:04.673Z,30.54
2022-08-17T14:17:36.590Z,30.96
2022-08-17T14:20:09.160Z,31.25
2022-08-17T14:22:44.235Z,31.54
2022-08-17T14:25:15.298Z,31.73
2022-08-17T14:27:52.308Z,31.13
2022-08-17T14:30:23.675Z,30.30
2022-08-17T14:32:51.864Z,30.64
2022-08-17T14:35:22.097Z,30.92
2022-08-17T14:37:51.431Z,30.85
2022-08-17T14:40:20.152Z,32.18
2022-08-17T14:42:48.078Z,31.40
2022-08-17T14:45:32.075Z,31.50
2022-08-17T14:48:03.050Z,32.31
2022-08-17T14:50:31.730Z,32.24
2022-08-17T14:53:01.405Z,32.34
2022-08-17T14:55:29.336Z,32.05
2022-08-17T14:57:56.985Z,32.51
2022-08-17T15:00:24.769Z,31.93
2022-08-17T15:02:56.212Z,32.70
2022-08-17T15:05:26.253Z,31.85
2022-08-17T15:07:56.201Z,30.93
2022-08-17T15:10:26.039Z,31.37
2022-08-17T15:12:54.017Z,31.21
2022-08-17T15:15:21.935Z,31.50
2022-08-17T15:17:49.637Z,31.61
2022-08-17T15:20:20.003Z,32.81
2022-08-17T15:22:49.176Z,33.34
2022-08-17T15:25:19.561Z,32.40
2022-08-17T15:27:50.720Z,32.32
2022-08-17T15:30:19.002Z,32.09
2022-08-17T15:32:54.398Z,31.73
2022-08-17T15:35:27.235Z,31.59
2022-08-17T15:37:58.663Z,31.34
2022-08-17T15:40:26.467Z,31.13
2022-08-17T15:42:55.595Z,30.60
2022-08-17T15:45:25.227Z,30.12
2022-08-17T15:47:53.270Z,29.87
2022-08-17T15:50:21.105Z,29.71
2022-08-17T15:52:55.067Z,29.50
2022-08-17T15:55:25.430Z,29.23
2022-08-17T15:57:54.753Z,29.18
2022-08-17T16:00:23.297Z,28.97
2022-08-17T16:03:44.867Z,28.75
2022-08-17T16:05:40.738Z,28.52
2022-08-17T16:08:20.627Z,28.28
2022-08-17T16:10:49.668Z,28.20
2022-08-17T16:13:19.574Z,28.19
2022-08-17T16:15:56.864Z,28.11
2022-08-17T16:18:28.214Z,27.96
2022-08-17T16:20:56.890Z,27.85
2022-08-17T16:23:24.903Z,27.33
2022-08-17T16:25:54.239Z,26.68
2022-08-17T16:28:23.541Z,25.39
2022-08-17T16:31:04.520Z,23.72
2022-08-17T16:33:32.127Z,21.62
2022-08-17T16:35:59.754Z,20.58
2022-08-17T16:38:27.367Z,19.92
2022-08-17T16:40:54.996Z,19.38
2022-08-17T16:43:23.934Z,18.47
2022-08-17T16:45:52.208Z,16.70
2022-08-17T16:48:49.749Z,16.70
2022-08-17T16:51:17.906Z,16.99
2022-08-17T16:53:45.514Z,16.94
2022-08-17T16:56:22.148Z,17.10
2022-08-17T16:58:52.319Z,17.48
2022-08-17T17:01:21.417Z,17.66
2022-08-17T17:03:58.219Z,17.92
2022-08-17T17:06:39.969Z,18.03
2022-08-17T17:09:13.789Z,17.86
2022-08-17T17:11:43.853Z,17.79
2022-08-17T17:14:22.373Z,19.06
2022-08-17T17:16:58.055Z,19.14
2022-08-17T17:19:35.285Z,18.88
2022-08-17T17:22:13.776Z,19.50
2022-08-17T17:24:50.255Z,18.71
2022-08-17T17:27:34.178Z,18.52
2022-08-17T17:30:11.944Z,18.95
2022-08-17T17:32:49.100Z,19.17
2022-08-17T17:35:23.928Z,19.03
2022-08-17T17:37:56.388Z,19.28
2022-08-17T17:40:31.927Z,19.53
2022-08-17T17:43:20.481Z,19.71
2022-08-17T17:45:56.348Z,19.90
2022-08-17T17:48:24.261Z,20.09
2022-08-17T17:51:05.975Z,20.10
2022-08-17T17:53:57.325Z,20.24
2022-08-17T17:56:43.648Z,20.32
2022-08-17T17:59:23.665Z,20.44
2022-08-17T18:02:07.023Z,20.75
2022-08-17T18:04:50.710Z,20.67
2022-08-17T18:07:32.291Z,20.85
2022-08-17T18:10:29.268Z,21.15
2022-08-17T18:13:11.146Z,20.96
2022-08-17T18:15:47.372Z,21.16
2022-08-17T18:18:40.093Z,19.63
2022-08-17T18:21:13.087Z,19.43
2022-08-17T18:23:46.763Z,18.85
2022-08-17T18:26:36.676Z,18.92
2022-08-17T18:29:25.122Z,18.92
2022-08-17T18:32:31.968Z,18.70
2022-08-17T18:35:17.973Z,18.44
2022-08-17T18:37:48.141Z,18.50
2022-08-17T18:40:30.891Z,18.36
2022-08-17T18:43:05.070Z,18.23
2022-08-17T18:45:38.648Z,18.27
2022-08-17T18:48:22.440Z,18.19
2022-08-17T18:50:53.778Z,18.20
2022-08-17T18:53:33.552Z,18.21
2022-08-17T18:56:21.292Z,18.13
2022-08-17T18:59:04.444Z,18.07
2022-08-17T19:01:52.512Z,18.18
2022-08-17T19:04:37.015Z,18.26
2022-08-17T19:07:23.683Z,18.15
2022-08-17T19:09:57.899Z,18.17
2022-08-17T19:12:31.516Z,18.19
2022-08-17T19:15:02.223Z,18.24
2022-08-17T19:17:40.851Z,18.37
2022-08-17T19:20:17.725Z,18.24
2022-08-17T19:23:08.564Z,18.23
2022-08-17T19:25:42.792Z,18.28
2022-08-17T19:28:22.401Z,18.14
2022-08-17T19:30:56.274Z,18.21
2022-08-17T19:33:24.716Z,18.19
2022-08-17T19:36:04.929Z,18.25
2022-08-17T19:38:44.490Z,18.30
2022-08-17T19:41:22.428Z,18.25
2022-08-17T19:44:07.816Z,18.24
2022-08-17T19:46:56.036Z,18.23
2022-08-17T19:49:45.032Z,18.10
2022-08-17T19:52:35.530Z,18.32
2022-08-17T19:55:20.551Z,18.33
2022-08-17T19:58:03.212Z,18.32
2022-08-17T20:00:38.631Z,18.33
2022-08-17T20:03:16.688Z,18.29
2022-08-17T20:06:11.669Z,18.25
2022-08-17T20:08:40.216Z,18.26
2022-08-17T20:11:20.061Z,18.29
2022-08-17T20:13:55.658Z,18.36
2022-08-17T20:16:23.626Z,18.39
2022-08-17T20:18:59.333Z,18.45
2022-08-17T20:21:36.715Z,18.56
2022-08-17T20:24:18.960Z,18.57
2022-08-17T20:26:57.990Z,18.59
2022-08-17T20:29:37.232Z,18.63
2022-08-17T20:32:21.384Z,18.66
2022-08-17T20:35:07.539Z,18.71
2022-08-17T20:37:39.828Z,18.77
2022-08-17T20:40:22.848Z,18.82
2022-08-17T20:42:51.844Z,18.72
2022-08-17T20:46:00.983Z,18.61
2022-08-17T20:48:38.609Z,18.51
2022-08-17T20:51:26.978Z,18.50
2022-08-17T20:54:29.959Z,18.58
2022-08-17T20:57:00.222Z,18.63
2022-08-17T21:00:19.418Z,18.75
2022-08-17T21:02:50.677Z,18.67
2022-08-17T21:05:37.223Z,18.66
2022-08-17T21:08:16.374Z,18.72
2022-08-17T21:10:46.250Z,18.67
2022-08-17T21:13:44.573Z,18.81
2022-08-17T21:16:32.450Z,18.77
2022-08-17T21:19:17.996Z,18.99
2022-08-17T21:21:57.834Z,19.11
2022-08-17T21:24:40.106Z,19.07
2022-08-17T21:27:28.684Z,19.15
2022-08-17T21:30:22.167Z,19.27
2022-08-17T21:33:17.813Z,19.31
2022-08-17T21:35:49.641Z,19.35
2022-08-17T21:38:21.440Z,19.32
2022-08-17T21:40:53.805Z,19.49
2022-08-17T21:43:27.128Z,19.60
2022-08-17T21:45:59.815Z,19.67
2022-08-17T21:48:33.248Z,19.62
2022-08-17T21:51:09.090Z,19.42
2022-08-17T21:53:44.219Z,19.17
2022-08-17T21:56:22.157Z,19.11
2022-08-17T21:58:57.018Z,19.07
2022-08-17T22:01:28.075Z,19.13
2022-08-17T22:04:18.969Z,19.23
2022-08-17T22:06:55.815Z,19.29
2022-08-17T22:09:28.145Z,19.35
2022-08-17T22:12:03.406Z,19.58
2022-08-17T22:14:53.345Z,19.32
2022-08-17T22:17:24.896Z,19.20
2022-08-17T22:19:58.266Z,18.98
2022-08-17T22:22:31.214Z,18.77
2022-08-17T22:25:04.688Z,18.82
2022-08-17T22:27:48.952Z,18.84
2022-08-17T22:30:25.460Z,18.83
2022-08-17T22:32:53.202Z,18.73
2022-08-17T22:35:38.847Z,18.99
2022-08-17T22:38:31.686Z,19.04
2022-08-17T22:41:41.103Z,19.09
2022-08-17T22:44:22.210Z,18.99
2022-08-17T22:46:56.527Z,18.94
2022-08-17T22:49:28.585Z,18.99
2022-08-17T22:52:30.086Z,18.96
2022-08-17T22:55:09.297Z,18.96
2022-08-17T22:57:44.524Z,18.89
2022-08-17T23:00:29.894Z,18.93
2022-08-17T23:03:08.831Z,19.05
2022-08-17T23:05:37.652Z,19.04
2022-08-17T23:08:11.006Z,19.05
2022-08-17T23:10:39.544Z,19.02
2022-08-17T23:13:07.659Z,19.15
2022-08-17T23:15:35.513Z,18.83
2022-08-17T23:18:03.264Z,18.82
2022-08-17T23:20:34.119Z,18.93
2022-08-17T23:23:04.544Z,19.05
2022-08-17T23:25:35.084Z,19.10
2022-08-17T23:28:05.936Z,19.28
2022-08-17T23:30:38.617Z,19.38
2022-08-17T23:33:17.300Z,19.32
2022-08-17T23:35:44.909Z,19.40
2022-08-17T23:38:13.775Z,19.55
2022-08-17T23:40:42.766Z,19.45
2022-08-17T23:43:24.115Z,19.39
2022-08-17T23:45:53.870Z,19.41
2022-08-17T23:48:30.349Z,19.32
2022-08-17T23:51:11.228Z,19.27
2022-08-17T23:53:45.771Z,19.25
2022-08-17T23:56:15.132Z,19.33
2022-08-17T23:58:44.189Z,19.24
